createdAt,value
2019-01-10T00:00:49.361Z,1.52
2019-01-10T00:03:19.395Z,6.53
2019-01-10T00:05:49.058Z,3.35
2019-01-10T00:08:19.071Z,2.98
2019-01-10T00:10:48.549Z,1.87
2019-01-10T00:13:18.068Z,2.52
2019-01-10T00:15:47.652Z,2.67
2019-01-10T00:18:17.591Z,3.08
2019-01-10T00:20:47.546Z,3.65
2019-01-10T00:23:17.021Z,1.45
2019-01-10T00:25:46.535Z,1.95
2019-01-10T00:28:16.065Z,8.28
2019-01-10T00:30:45.553Z,1.17
2019-01-10T00:33:15.061Z,3.50
2019-01-10T00:35:44.611Z,1.95
2019-01-10T00:38:14.173Z,1.15
2019-01-10T00:40:43.819Z,1.12
2019-01-10T00:43:13.701Z,1.72
2019-01-10T00:45:43.347Z,2.42
2019-01-10T00:48:12.833Z,4.10
2019-01-10T00:50:42.351Z,1.20
2019-01-10T00:53:11.829Z,1.10
2019-01-10T00:55:41.706Z,1.50
2019-01-10T00:58:11.864Z,2.15
2019-01-10T01:00:41.366Z,5.78
2019-01-10T01:03:10.821Z,1.95
2019-01-10T01:05:40.881Z,2.35
2019-01-10T01:08:10.351Z,0.80
2019-01-10T01:10:39.902Z,1.70
2019-01-10T01:13:09.427Z,1.42
2019-01-10T01:15:38.977Z,5.17
2019-01-10T01:18:08.575Z,1.42
2019-01-10T01:20:38.198Z,3.80
2019-01-10T01:23:07.716Z,4.83
2019-01-10T01:25:37.291Z,2.00
2019-01-10T01:28:07.261Z,2.10
2019-01-10T01:30:36.767Z,2.33
2019-01-10T01:33:06.279Z,5.15
2019-01-10T01:35:35.795Z,2.27
2019-01-10T01:38:05.237Z,4.67
2019-01-10T01:40:34.802Z,3.62
2019-01-10T01:43:07.491Z,1.70
2019-01-10T01:45:35.755Z,2.45
2019-01-10T01:48:05.407Z,3.58
2019-01-10T01:50:34.983Z,8.35
2019-01-10T01:53:04.469Z,1.82
2019-01-10T01:55:34.359Z,2.65
2019-01-10T01:58:03.883Z,6.55
2019-01-10T02:00:33.416Z,4.72
2019-01-10T02:03:02.966Z,1.52
2019-01-10T02:05:32.484Z,1.15
2019-01-10T02:08:01.963Z,1.17
2019-01-10T02:10:31.439Z,2.25
2019-01-10T02:13:01.145Z,1.27
2019-01-10T02:15:30.653Z,2.77
2019-01-10T02:18:00.143Z,1.00
2019-01-10T02:20:29.623Z,1.32
2019-01-10T02:22:59.141Z,1.17
2019-01-10T02:25:28.623Z,1.95
2019-01-10T02:27:58.127Z,1.10
2019-01-10T02:30:27.665Z,2.02
2019-01-10T02:32:57.150Z,6.58
2019-01-10T02:35:27.022Z,1.32
2019-01-10T02:37:56.506Z,0.72
2019-01-10T02:40:25.191Z,0.85
2019-01-10T02:42:54.724Z,3.75
2019-01-10T02:45:24.217Z,0.75
2019-01-10T02:47:53.701Z,1.25
2019-01-10T02:50:24.119Z,1.55
2019-01-10T02:52:53.753Z,2.65
2019-01-10T02:55:23.337Z,4.47
2019-01-10T02:57:52.937Z,1.25
2019-01-10T03:00:25.011Z,3.42
2019-01-10T03:02:54.854Z,0.90
2019-01-10T03:05:24.751Z,0.90
2019-01-10T03:07:54.335Z,0.95
2019-01-10T03:10:25.815Z,0.80
2019-01-10T03:12:55.747Z,0.88
2019-01-10T03:15:26.124Z,0.90
2019-01-10T03:17:55.600Z,2.05
2019-01-10T03:20:25.206Z,0.95
2019-01-10T03:22:55.287Z,2.17
2019-01-10T03:25:24.819Z,0.90
2019-01-10T03:27:54.355Z,1.20
2019-01-10T03:30:23.865Z,1.12
2019-01-10T03:32:53.375Z,3.30
2019-01-10T03:35:23.520Z,3.33
2019-01-10T03:37:52.991Z,1.00
2019-01-10T03:40:22.846Z,2.20
2019-01-10T03:42:52.336Z,1.30
2019-01-10T03:45:22.303Z,1.37
2019-01-10T03:47:51.775Z,1.35
2019-01-10T03:50:21.366Z,2.15
2019-01-10T03:52:50.878Z,1.00
2019-01-10T03:55:20.755Z,7.62
2019-01-10T03:57:50.773Z,2.87
2019-01-10T04:00:22.966Z,1.40
2019-01-10T04:02:52.543Z,5.90
2019-01-10T04:05:22.178Z,1.50
2019-01-10T04:07:52.365Z,1.20
2019-01-10T04:10:21.890Z,1.85
2019-01-10T04:12:52.890Z,3.33
2019-01-10T04:15:22.374Z,2.40
2019-01-10T04:17:51.869Z,5.87
2019-01-10T04:20:21.480Z,6.05
2019-01-10T04:22:51.015Z,1.17
2019-01-10T04:25:20.531Z,9.40
2019-01-10T04:27:50.054Z,1.30
2019-01-10T04:30:20.755Z,1.00
2019-01-10T04:32:50.295Z,1.98
2019-01-10T04:35:20.246Z,3.45
2019-01-10T04:37:49.782Z,1.10
2019-01-10T04:40:20.389Z,1.25
2019-01-10T04:42:50.064Z,0.88
2019-01-10T04:45:20.045Z,10.03
2019-01-10T04:47:49.539Z,1.40
2019-01-10T04:50:19.226Z,1.30
2019-01-10T04:52:48.697Z,4.70
2019-01-10T04:55:37.652Z,2.25
2019-01-10T04:58:07.290Z,2.55
2019-01-10T05:00:36.860Z,2.35
2019-01-10T05:03:06.315Z,2.05
2019-01-10T05:05:35.899Z,1.22
2019-01-10T05:08:05.425Z,1.98
2019-01-10T05:10:35.018Z,2.47
2019-01-10T05:13:04.524Z,2.20
2019-01-10T05:15:33.999Z,3.52
2019-01-10T05:18:03.801Z,1.98
2019-01-10T05:20:33.280Z,2.90
2019-01-10T05:23:03.228Z,1.40
2019-01-10T05:25:32.792Z,1.37
2019-01-10T05:28:02.272Z,2.90
2019-01-10T05:30:31.746Z,1.50
2019-01-10T05:33:01.723Z,1.30
2019-01-10T05:35:31.240Z,5.72
2019-01-10T05:38:00.716Z,1.95
2019-01-10T05:40:30.590Z,2.75
2019-01-10T05:43:00.095Z,1.80
2019-01-10T05:45:29.551Z,2.58
2019-01-10T05:47:59.068Z,2.50
2019-01-10T05:50:28.537Z,1.90
2019-01-10T05:52:58.088Z,2.92
2019-01-10T05:55:27.649Z,2.72
2019-01-10T05:57:57.221Z,1.40
2019-01-10T06:00:27.455Z,1.80
2019-01-10T06:02:57.284Z,4.37
2019-01-10T06:05:26.785Z,2.00
2019-01-10T06:07:56.359Z,1.87
2019-01-10T06:10:27.984Z,5.20
2019-01-10T06:12:57.724Z,3.37
2019-01-10T06:15:27.371Z,2.20
2019-01-10T06:17:56.974Z,8.28
2019-01-10T06:20:26.474Z,1.40
2019-01-10T06:22:56.012Z,2.47
2019-01-10T06:25:25.857Z,3.05
2019-01-10T06:27:55.358Z,1.57
2019-01-10T06:30:27.535Z,2.58
2019-01-10T06:32:57.043Z,1.60
2019-01-10T06:35:26.574Z,1.80
2019-01-10T06:37:56.136Z,1.80
2019-01-10T06:40:25.882Z,5.15
2019-01-10T06:42:55.791Z,1.27
2019-01-10T06:45:25.344Z,4.10
2019-01-10T06:47:54.880Z,3.80
2019-01-10T06:50:24.374Z,1.85
2019-01-10T06:52:53.862Z,3.67
2019-01-10T06:55:23.369Z,2.87
2019-01-10T06:57:52.840Z,1.75
2019-01-10T07:00:24.430Z,3.15
2019-01-10T07:02:54.485Z,4.72
2019-01-10T07:05:23.974Z,1.98
2019-01-10T07:07:56.530Z,7.40
2019-01-10T07:10:29.117Z,1.40
2019-01-10T07:12:58.870Z,4.65
2019-01-10T07:15:28.375Z,1.80
2019-01-10T07:17:57.906Z,2.10
2019-01-10T07:20:27.392Z,2.50
2019-01-10T07:22:56.874Z,16.90
2019-01-10T07:25:26.390Z,6.28
2019-01-10T07:27:56.719Z,2.10
2019-01-10T07:30:35.695Z,2.75
2019-01-10T07:32:59.662Z,7.97
2019-01-10T07:35:29.243Z,3.83
2019-01-10T07:37:58.701Z,1.98
2019-01-10T07:40:28.213Z,2.45
2019-01-10T07:42:57.966Z,3.70
2019-01-10T07:45:27.644Z,1.80
2019-01-10T07:47:57.205Z,2.75
2019-01-10T07:50:29.696Z,5.45
2019-01-10T07:52:59.180Z,3.33
2019-01-10T07:55:29.078Z,2.22
2019-01-10T07:57:58.591Z,3.80
2019-01-10T08:00:28.067Z,1.85
2019-01-10T08:02:57.580Z,3.70
2019-01-10T08:05:27.026Z,2.45
2019-01-10T08:07:56.522Z,3.17
2019-01-10T08:10:26.059Z,2.27
2019-01-10T08:12:55.605Z,1.55
2019-01-10T08:15:25.204Z,7.00
2019-01-10T08:17:56.115Z,3.67
2019-01-10T08:20:25.698Z,1.30
2019-01-10T08:22:55.184Z,2.33
2019-01-10T08:25:24.698Z,7.78
2019-01-10T08:27:54.250Z,3.75
2019-01-10T08:30:24.931Z,2.02
2019-01-10T08:32:54.506Z,1.70
2019-01-10T08:35:24.802Z,1.72
2019-01-10T08:37:54.416Z,1.75
2019-01-10T08:40:23.976Z,1.67
2019-01-10T08:42:53.443Z,2.05
2019-01-10T08:45:23.435Z,2.12
2019-01-10T08:47:53.349Z,1.98
2019-01-10T08:50:25.045Z,1.42
2019-01-10T08:52:54.664Z,2.42
2019-01-10T08:55:24.431Z,6.92
2019-01-10T08:57:54.118Z,1.87
2019-01-10T09:00:24.200Z,1.55
2019-01-10T09:02:53.893Z,1.85
2019-01-10T09:05:23.397Z,5.25
2019-01-10T09:07:52.899Z,4.50
2019-01-10T09:10:25.470Z,2.85
2019-01-10T09:12:55.891Z,2.15
2019-01-10T09:15:33.868Z,4.17
2019-01-10T09:17:57.187Z,1.47
2019-01-10T09:20:26.668Z,2.17
2019-01-10T09:22:56.235Z,4.30
2019-01-10T09:25:25.802Z,7.42
2019-01-10T09:27:55.343Z,5.70
2019-01-10T09:30:24.887Z,6.40
2019-01-10T09:32:54.439Z,2.67
2019-01-10T09:35:23.955Z,6.92
2019-01-10T09:37:53.638Z,1.70
2019-01-10T09:40:24.119Z,1.70
2019-01-10T09:42:53.950Z,3.72
2019-01-10T09:45:24.549Z,2.72
2019-01-10T09:47:54.335Z,3.47
2019-01-10T09:50:24.206Z,2.10
2019-01-10T09:52:54.454Z,3.80
2019-01-10T09:55:24.084Z,2.98
2019-01-10T09:57:53.547Z,2.05
2019-01-10T10:00:26.915Z,2.98
2019-01-10T10:02:56.842Z,10.90
2019-01-10T10:05:26.419Z,1.55
2019-01-10T10:07:55.968Z,1.77
2019-01-10T10:10:25.762Z,4.85
2019-01-10T10:12:55.425Z,3.90
2019-01-10T10:15:25.014Z,2.83
2019-01-10T10:17:54.671Z,6.83
2019-01-10T10:20:25.289Z,2.00
2019-01-10T10:22:55.767Z,4.00
2019-01-10T10:25:26.067Z,2.37
2019-01-10T10:27:56.171Z,3.85
2019-01-10T10:30:25.643Z,22.27
2019-01-10T10:32:55.168Z,3.75
2019-01-10T10:35:25.175Z,2.72
2019-01-10T10:37:54.660Z,1.42
2019-01-10T10:40:24.237Z,20.35
2019-01-10T10:42:54.161Z,4.50
2019-01-10T10:45:43.444Z,2.05
2019-01-10T10:48:13.670Z,55.20
2019-01-10T10:50:43.471Z,2.62
2019-01-10T10:53:12.975Z,1.70
2019-01-10T10:55:42.479Z,2.00
2019-01-10T10:58:11.952Z,2.30
2019-01-10T11:00:41.488Z,7.37
2019-01-10T11:03:10.951Z,6.03
2019-01-10T11:05:40.434Z,2.08
2019-01-10T11:08:09.988Z,2.05
2019-01-10T11:10:39.498Z,2.20
2019-01-10T11:13:09.146Z,5.05
2019-01-10T11:15:38.666Z,3.12
2019-01-10T11:18:08.209Z,3.55
2019-01-10T11:20:37.698Z,3.05
2019-01-10T11:23:10.763Z,5.23
2019-01-10T11:25:38.488Z,1.90
2019-01-10T11:28:08.399Z,3.92
2019-01-10T11:30:38.066Z,7.20
2019-01-10T11:33:07.555Z,4.33
2019-01-10T11:35:37.051Z,1.82
2019-01-10T11:38:06.658Z,1.40
2019-01-10T11:40:36.152Z,4.20
2019-01-10T11:43:05.626Z,3.92
2019-01-10T11:45:35.108Z,2.25
2019-01-10T11:48:04.592Z,1.87
2019-01-10T11:50:34.098Z,2.60
2019-01-10T11:53:04.177Z,2.15
2019-01-10T11:55:33.646Z,3.50
2019-01-10T11:58:03.139Z,8.47
2019-01-10T12:00:32.914Z,4.23
2019-01-10T12:03:02.470Z,7.37
2019-01-10T12:05:32.055Z,2.83
2019-01-10T12:08:01.598Z,6.25
2019-01-10T12:10:31.090Z,3.20
2019-01-10T12:13:01.154Z,4.30
2019-01-10T12:15:31.650Z,17.77
2019-01-10T12:18:01.359Z,7.57
2019-01-10T12:20:31.232Z,5.17
2019-01-10T12:23:01.919Z,5.40
2019-01-10T12:25:31.408Z,1.90
2019-01-10T12:28:01.095Z,3.80
2019-01-10T12:30:30.796Z,6.70
2019-01-10T12:33:00.234Z,2.52
2019-01-10T12:35:29.806Z,3.40
2019-01-10T12:37:59.385Z,4.90
2019-01-10T12:40:28.881Z,3.20
2019-01-10T12:42:58.399Z,8.30
2019-01-10T12:45:28.378Z,6.73
2019-01-10T12:47:57.858Z,3.30
2019-01-10T12:50:29.872Z,4.85
2019-01-10T12:52:59.394Z,10.72
2019-01-10T12:55:28.958Z,7.80
2019-01-10T12:57:58.533Z,11.50
2019-01-10T13:00:28.096Z,10.80
2019-01-10T13:02:58.131Z,3.55
2019-01-10T13:05:27.639Z,4.17
2019-01-10T13:08:03.451Z,12.60
2019-01-10T13:10:28.559Z,7.67
2019-01-10T13:12:58.597Z,3.25
2019-01-10T13:15:28.107Z,8.58
2019-01-10T13:17:57.669Z,4.03
2019-01-10T13:20:27.161Z,7.90
2019-01-10T13:22:57.134Z,7.30
2019-01-10T13:25:26.632Z,6.35
2019-01-10T13:27:57.322Z,7.22
2019-01-10T13:30:26.993Z,4.87
2019-01-10T13:32:56.728Z,8.48
2019-01-10T13:35:26.831Z,7.13
2019-01-10T13:37:56.419Z,3.73
2019-01-10T13:40:26.076Z,3.13
2019-01-10T13:42:55.555Z,7.40
2019-01-10T13:45:25.530Z,6.60
2019-01-10T13:47:55.209Z,3.00
2019-01-10T13:50:28.075Z,4.33
2019-01-10T13:52:57.647Z,3.47
2019-01-10T13:55:27.165Z,11.67
2019-01-10T13:57:56.653Z,6.80
2019-01-10T14:00:35.242Z,4.50
2019-01-10T14:03:00.630Z,4.07
2019-01-10T14:05:31.053Z,6.87
2019-01-10T14:08:00.539Z,15.50
2019-01-10T14:10:30.395Z,10.10
2019-01-10T14:12:59.849Z,4.57
2019-01-10T14:15:31.463Z,18.52
2019-01-10T14:18:00.936Z,7.95
2019-01-10T14:20:30.440Z,14.07
2019-01-10T14:22:59.934Z,4.33
2019-01-10T14:25:29.561Z,19.95
2019-01-10T14:27:59.980Z,17.10
2019-01-10T14:30:34.151Z,8.53
2019-01-10T14:33:04.003Z,6.62
2019-01-10T14:35:33.509Z,7.35
2019-01-10T14:38:02.990Z,4.87
2019-01-10T14:40:32.482Z,10.65
2019-01-10T14:43:01.969Z,7.15
2019-01-10T14:45:32.059Z,13.10
2019-01-10T14:48:02.107Z,5.53
2019-01-10T14:50:32.042Z,4.42
2019-01-10T14:53:01.608Z,7.40
2019-01-10T14:55:31.192Z,9.78
2019-01-10T14:58:00.697Z,3.85
2019-01-10T15:00:30.245Z,11.83
2019-01-10T15:02:59.751Z,11.95
2019-01-10T15:05:34.442Z,7.00
2019-01-10T15:08:00.434Z,6.17
2019-01-10T15:10:29.913Z,4.05
2019-01-10T15:12:59.466Z,4.60
2019-01-10T15:15:29.162Z,7.37
2019-01-10T15:18:06.423Z,6.65
2019-01-10T15:20:36.021Z,8.55
2019-01-10T15:23:05.641Z,6.08
2019-01-10T15:25:35.144Z,15.58
2019-01-10T15:28:04.759Z,4.50
2019-01-10T15:30:34.245Z,16.35
2019-01-10T15:33:03.721Z,6.25
2019-01-10T15:35:33.836Z,12.90
2019-01-10T15:38:03.372Z,7.50
2019-01-10T15:40:34.151Z,7.10
2019-01-10T15:43:04.117Z,6.85
2019-01-10T15:45:33.634Z,12.03
2019-01-10T15:48:03.172Z,6.62
2019-01-10T15:50:32.683Z,5.62
2019-01-10T15:53:02.196Z,9.10
2019-01-10T15:55:31.854Z,8.85
2019-01-10T15:58:01.435Z,13.60
2019-01-10T16:00:30.950Z,12.10
2019-01-10T16:03:00.450Z,9.40
2019-01-10T16:05:30.063Z,7.60
2019-01-10T16:07:59.561Z,11.00
2019-01-10T16:10:29.130Z,11.70
2019-01-10T16:12:58.685Z,6.50
2019-01-10T16:15:28.177Z,4.90
2019-01-10T16:17:57.684Z,6.45
2019-01-10T16:20:27.837Z,13.32
2019-01-10T16:22:57.375Z,14.93
2019-01-10T16:25:26.980Z,9.35
2019-01-10T16:27:56.494Z,8.70
2019-01-10T16:30:28.582Z,6.47
2019-01-10T16:32:58.114Z,7.62
2019-01-10T16:35:28.803Z,12.73
2019-01-10T16:37:58.351Z,8.13
2019-01-10T16:40:29.543Z,5.97
2019-01-10T16:42:59.314Z,13.90
2019-01-10T16:45:29.568Z,10.25
2019-01-10T16:47:59.149Z,5.35
2019-01-10T16:50:28.722Z,11.90
2019-01-10T16:52:58.265Z,5.37
2019-01-10T16:55:27.748Z,6.37
2019-01-10T16:57:57.353Z,14.63
2019-01-10T17:00:30.449Z,11.08
2019-01-10T17:03:00.100Z,8.75
2019-01-10T17:05:29.607Z,10.95
2019-01-10T17:07:59.168Z,8.20
2019-01-10T17:10:28.749Z,7.80
2019-01-10T17:12:58.727Z,6.67
2019-01-10T17:15:28.278Z,4.35
2019-01-10T17:17:57.756Z,10.08
2019-01-10T17:20:28.295Z,10.10
2019-01-10T17:22:57.814Z,5.92
2019-01-10T17:25:27.345Z,7.55
2019-01-10T17:27:56.853Z,11.28
2019-01-10T17:30:30.177Z,8.15
2019-01-10T17:32:59.654Z,8.93
2019-01-10T17:35:32.640Z,12.15
2019-01-10T17:38:03.058Z,10.98
2019-01-10T17:40:32.953Z,8.48
2019-01-10T17:43:03.195Z,8.35
2019-01-10T17:45:33.983Z,6.20
2019-01-10T17:48:03.676Z,13.08
2019-01-10T17:50:33.185Z,22.73
2019-01-10T17:53:02.691Z,15.00
2019-01-10T17:55:32.160Z,9.88
2019-01-10T17:58:02.058Z,7.37
2019-01-10T18:00:32.505Z,7.87
2019-01-10T18:03:02.105Z,10.88
2019-01-10T18:05:31.596Z,7.50
2019-01-10T18:08:01.381Z,10.32
2019-01-10T18:10:31.059Z,16.80
2019-01-10T18:13:00.600Z,10.32
2019-01-10T18:15:31.505Z,12.93
2019-01-10T18:18:00.961Z,7.42
2019-01-10T18:20:36.078Z,10.05
2019-01-10T18:23:06.678Z,11.45
2019-01-10T18:25:36.152Z,17.80
2019-01-10T18:28:06.444Z,11.50
2019-01-10T18:30:36.206Z,10.53
2019-01-10T18:33:05.695Z,18.50
2019-01-10T18:35:35.877Z,10.38
2019-01-10T18:38:05.567Z,9.70
2019-01-10T18:40:35.140Z,13.25
2019-01-10T18:43:04.956Z,14.80
2019-01-10T18:45:34.486Z,13.40
2019-01-10T18:48:03.983Z,18.10
2019-01-10T18:50:33.551Z,13.13
2019-01-10T18:53:03.035Z,16.10
2019-01-10T18:55:32.544Z,9.30
2019-01-10T18:58:02.096Z,17.00
2019-01-10T19:00:32.122Z,10.00
2019-01-10T19:03:02.001Z,10.40
2019-01-10T19:05:31.653Z,12.10
2019-01-10T19:08:01.167Z,20.08
2019-01-10T19:10:30.668Z,14.10
2019-01-10T19:13:00.187Z,13.53
2019-01-10T19:15:29.759Z,19.57
2019-01-10T19:18:03.319Z,13.48
2019-01-10T19:20:30.533Z,13.08
2019-01-10T19:23:00.088Z,11.08
2019-01-10T19:25:29.591Z,10.20
2019-01-10T19:27:59.484Z,17.48
2019-01-10T19:30:31.018Z,8.70
2019-01-10T19:33:01.434Z,14.95
2019-01-10T19:35:31.305Z,6.78
2019-01-10T19:38:00.776Z,16.48
2019-01-10T19:40:30.265Z,9.50
2019-01-10T19:42:59.773Z,12.37
2019-01-10T19:45:29.348Z,9.55
2019-01-10T19:47:58.845Z,10.72
2019-01-10T19:50:28.539Z,14.80
2019-01-10T19:52:58.100Z,12.43
2019-01-10T19:55:27.822Z,16.25
2019-01-10T19:57:57.307Z,8.35
2019-01-10T20:00:36.813Z,13.38
2019-01-10T20:03:25.864Z,13.85
2019-01-10T20:05:55.433Z,14.98
2019-01-10T20:08:24.936Z,13.38
2019-01-10T20:11:01.052Z,13.08
2019-01-10T20:13:36.051Z,20.15
2019-01-10T20:16:06.569Z,19.45
2019-01-10T20:18:36.149Z,16.52
2019-01-10T20:21:07.231Z,18.00
2019-01-10T20:23:37.340Z,14.70
2019-01-10T20:26:06.870Z,16.27
2019-01-10T20:28:36.376Z,23.38
2019-01-10T20:31:06.304Z,17.62
2019-01-10T20:33:35.761Z,13.55
2019-01-10T20:36:05.319Z,15.95
2019-01-10T20:38:35.390Z,16.55
2019-01-10T20:41:04.996Z,19.75
2019-01-10T20:43:34.483Z,19.73
2019-01-10T20:46:04.129Z,21.62
2019-01-10T20:48:33.701Z,18.85
2019-01-10T20:51:03.676Z,19.10
2019-01-10T20:53:33.390Z,20.48
2019-01-10T20:56:02.895Z,19.95
2019-01-10T20:58:32.402Z,25.48
2019-01-10T21:01:01.979Z,28.50
2019-01-10T21:03:31.487Z,17.32
2019-01-10T21:06:00.965Z,23.27
2019-01-10T21:08:30.640Z,20.00
2019-01-10T21:11:00.185Z,22.15
2019-01-10T21:13:29.742Z,21.85
2019-01-10T21:16:00.335Z,20.85
2019-01-10T21:18:29.873Z,27.40
2019-01-10T21:20:59.472Z,24.12
2019-01-10T21:23:29.077Z,17.80
2019-01-10T21:25:58.587Z,22.85
2019-01-10T21:28:28.054Z,25.32
2019-01-10T21:30:57.576Z,22.65
2019-01-10T21:33:27.062Z,16.50
2019-01-10T21:35:56.576Z,17.75
2019-01-10T21:38:26.166Z,23.65
2019-01-10T21:40:55.756Z,20.75
2019-01-10T21:43:25.278Z,28.77
2019-01-10T21:45:54.812Z,26.12
2019-01-10T21:48:24.737Z,15.30
2019-01-10T21:50:57.900Z,18.90
2019-01-10T21:53:28.186Z,17.98
2019-01-10T21:55:58.148Z,16.93
2019-01-10T21:58:27.631Z,17.00
2019-01-10T22:00:57.211Z,15.23
2019-01-10T22:03:26.666Z,21.82
2019-01-10T22:05:56.198Z,22.45
2019-01-10T22:08:25.656Z,20.15
2019-01-10T22:10:55.132Z,16.95
2019-01-10T22:13:24.688Z,15.55
2019-01-10T22:15:54.410Z,15.75
2019-01-10T22:18:23.894Z,15.48
2019-01-10T22:20:53.382Z,16.15
2019-01-10T22:23:22.878Z,16.57
2019-01-10T22:25:52.462Z,24.80
2019-01-10T22:28:21.903Z,20.40
2019-01-10T22:30:51.420Z,29.92
2019-01-10T22:33:20.908Z,22.98
2019-01-10T22:35:50.395Z,18.62
2019-01-10T22:38:20.119Z,19.85
2019-01-10T22:40:49.610Z,19.73
2019-01-10T22:43:19.180Z,15.30
2019-01-10T22:45:48.690Z,19.30
2019-01-10T22:48:18.185Z,14.38
2019-01-10T22:50:48.124Z,17.12
2019-01-10T22:53:17.653Z,18.48
2019-01-10T22:55:47.156Z,18.12
2019-01-10T22:58:16.692Z,18.23
2019-01-10T23:01:00.910Z,18.05
2019-01-10T23:03:35.074Z,17.37
2019-01-10T23:06:05.136Z,13.78
2019-01-10T23:08:40.358Z,15.78
2019-01-10T23:11:14.590Z,17.50
2019-01-10T23:13:48.926Z,15.80
2019-01-10T23:16:21.284Z,13.30
2019-01-10T23:18:54.258Z,13.48
2019-01-10T23:21:22.243Z,15.23
2019-01-10T23:23:56.890Z,13.10
2019-01-10T23:26:26.372Z,15.23
2019-01-10T23:28:56.149Z,12.40
2019-01-10T23:31:25.644Z,14.80
2019-01-10T23:33:56.835Z,12.40
2019-01-10T23:36:26.646Z,12.68
2019-01-10T23:39:14.994Z,13.90
2019-01-10T23:41:44.502Z,11.35
2019-01-10T23:44:14.049Z,13.28
2019-01-10T23:46:43.578Z,15.75
2019-01-10T23:49:13.073Z,17.32
2019-01-10T23:51:42.561Z,11.80
2019-01-10T23:54:12.483Z,13.65
2019-01-10T23:56:42.105Z,12.15
2019-01-10T23:59:11.584Z,13.58
